createdAt,value
2022-11-01T00:00:12.492Z,75.81
2022-11-01T00:02:38.903Z,75.92
2022-11-01T00:05:05.214Z,75.47
2022-11-01T00:07:35.027Z,75.71
2022-11-01T00:10:01.467Z,75.64
2022-11-01T00:12:28.511Z,75.58
2022-11-01T00:14:54.984Z,75.72
2022-11-01T00:17:21.548Z,75.33
2022-11-01T00:19:47.855Z,75.22
2022-11-01T00:22:14.208Z,75.53
2022-11-01T00:24:40.578Z,75.74
2022-11-01T00:27:06.941Z,75.37
2022-11-01T00:29:33.248Z,75.33
2022-11-01T00:31:59.611Z,75.67
2022-11-01T00:34:25.868Z,75.63
2022-11-01T00:36:52.174Z,75.58
2022-11-01T00:39:18.454Z,75.58
2022-11-01T00:41:44.934Z,75.16
2022-11-01T00:44:11.199Z,75.33
2022-11-01T00:46:37.468Z,75.62
2022-11-01T00:49:03.735Z,75.50
2022-11-01T00:51:30.009Z,75.40
2022-11-01T00:53:56.812Z,75.24
2022-11-01T00:56:23.109Z,75.19
2022-11-01T00:58:49.353Z,75.58
2022-11-01T01:01:15.745Z,75.39
2022-11-01T01:03:42.222Z,75.49
2022-11-01T01:06:08.491Z,75.62
2022-11-01T01:08:34.771Z,75.36
2022-11-01T01:11:01.881Z,75.38
2022-11-01T01:13:28.169Z,75.63
2022-11-01T01:15:54.413Z,75.50
2022-11-01T01:18:20.718Z,75.82
2022-11-01T01:20:47.414Z,75.79
2022-11-01T01:23:13.703Z,75.38
2022-11-01T01:25:39.999Z,75.34
2022-11-01T01:28:06.371Z,75.52
2022-11-01T01:30:32.744Z,75.69
2022-11-01T01:32:59.122Z,75.74
2022-11-01T01:35:26.181Z,75.57
2022-11-01T01:37:52.631Z,75.52
2022-11-01T01:40:18.963Z,75.50
2022-11-01T01:42:45.484Z,75.32
2022-11-01T01:45:11.768Z,75.40
2022-11-01T01:47:38.063Z,75.74
2022-11-01T01:50:04.363Z,75.19
2022-11-01T01:52:30.684Z,75.34
2022-11-01T01:54:56.983Z,75.55
2022-11-01T01:57:23.288Z,75.74
2022-11-01T01:59:49.837Z,75.41
2022-11-01T02:02:16.265Z,75.22
2022-11-01T02:04:43.099Z,75.46
2022-11-01T02:07:11.637Z,75.53
2022-11-01T02:09:39.269Z,75.62
2022-11-01T02:12:05.608Z,75.24
2022-11-01T02:14:31.850Z,75.42
2022-11-01T02:16:58.603Z,75.65
2022-11-01T02:19:24.965Z,75.72
2022-11-01T02:21:54.030Z,75.55
2022-11-01T02:24:20.431Z,75.52
2022-11-01T02:26:46.716Z,75.47
2022-11-01T02:29:12.988Z,75.67
2022-11-01T02:31:39.472Z,75.52
2022-11-01T02:34:05.893Z,75.73
2022-11-01T02:36:32.520Z,75.61
2022-11-01T02:38:58.849Z,75.39
2022-11-01T02:41:25.388Z,75.50
2022-11-01T02:43:51.887Z,75.28
2022-11-01T02:46:18.315Z,75.48
2022-11-01T02:48:44.816Z,75.54
2022-11-01T02:51:11.202Z,75.50
2022-11-01T02:53:37.498Z,75.49
2022-11-01T02:56:03.921Z,75.62
2022-11-01T02:58:30.249Z,75.27
2022-11-01T03:00:56.823Z,75.69
2022-11-01T03:03:23.170Z,75.43
2022-11-01T03:05:49.614Z,75.35
2022-11-01T03:08:15.852Z,75.59
2022-11-01T03:10:42.147Z,75.28
2022-11-01T03:13:08.467Z,75.60
2022-11-01T03:15:34.768Z,75.21
2022-11-01T03:18:01.068Z,75.04
2022-11-01T03:20:27.480Z,75.43
2022-11-01T03:22:53.966Z,75.41
2022-11-01T03:25:20.262Z,75.01
2022-11-01T03:27:46.610Z,75.21
2022-11-01T03:30:13.089Z,75.07
2022-11-01T03:32:39.340Z,75.08
2022-11-01T03:35:05.675Z,75.08
2022-11-01T03:37:31.951Z,75.27
2022-11-01T03:39:58.370Z,75.33
2022-11-01T03:42:25.156Z,75.40
2022-11-01T03:44:51.504Z,75.33
2022-11-01T03:47:18.140Z,75.19
2022-11-01T03:49:44.501Z,75.16
2022-11-01T03:52:10.750Z,74.99
2022-11-01T03:54:37.220Z,75.26
2022-11-01T03:57:03.511Z,75.41
2022-11-01T03:59:29.755Z,75.17
2022-11-01T04:01:56.129Z,75.13
2022-11-01T04:04:22.620Z,75.10
2022-11-01T04:06:48.910Z,75.52
2022-11-01T04:09:15.528Z,75.41
2022-11-01T04:11:41.884Z,75.06
2022-11-01T04:14:08.266Z,75.47
2022-11-01T04:16:34.794Z,75.34
2022-11-01T04:19:01.561Z,75.11
2022-11-01T04:21:27.830Z,75.13
2022-11-01T04:23:54.142Z,75.04
2022-11-01T04:26:20.854Z,75.00
2022-11-01T04:28:47.372Z,75.32
2022-11-01T04:31:13.664Z,75.13
2022-11-01T04:33:39.976Z,75.43
2022-11-01T04:36:06.277Z,75.01
2022-11-01T04:38:32.551Z,75.35
2022-11-01T04:40:58.853Z,75.30
2022-11-01T04:43:25.171Z,75.31
2022-11-01T04:45:51.464Z,75.19
2022-11-01T04:48:17.982Z,75.13
2022-11-01T04:50:44.289Z,74.88
2022-11-01T04:53:11.591Z,74.96
2022-11-01T04:55:37.972Z,75.35
2022-11-01T04:58:04.373Z,74.91
2022-11-01T05:00:30.872Z,75.21
2022-11-01T05:02:57.195Z,74.80
2022-11-01T05:05:23.599Z,74.97
2022-11-01T05:07:50.034Z,75.04
2022-11-01T05:10:16.490Z,75.23
2022-11-01T05:12:42.826Z,75.38
2022-11-01T05:15:09.272Z,75.00
2022-11-01T05:17:35.609Z,75.11
2022-11-01T05:20:02.112Z,74.93
2022-11-01T05:22:28.540Z,75.36
2022-11-01T05:24:54.915Z,74.96
2022-11-01T05:27:21.255Z,75.20
2022-11-01T05:29:47.715Z,74.96
2022-11-01T05:32:14.254Z,75.03
2022-11-01T05:34:40.585Z,74.95
2022-11-01T05:37:06.902Z,74.97
2022-11-01T05:39:33.487Z,75.11
2022-11-01T05:42:02.665Z,75.27
2022-11-01T05:44:29.475Z,74.84
2022-11-01T05:46:55.994Z,74.63
2022-11-01T05:49:22.331Z,75.03
2022-11-01T05:51:49.451Z,74.78
2022-11-01T05:54:15.935Z,75.21
2022-11-01T05:56:42.386Z,75.05
2022-11-01T05:59:08.688Z,75.15
2022-11-01T06:01:35.019Z,75.11
2022-11-01T06:04:01.487Z,75.08
2022-11-01T06:06:27.805Z,74.91
2022-11-01T06:08:54.128Z,74.74
2022-11-01T06:11:20.495Z,74.90
2022-11-01T06:13:46.784Z,74.90
2022-11-01T06:16:13.336Z,74.70
2022-11-01T06:18:40.097Z,74.96
2022-11-01T06:21:06.389Z,75.00
2022-11-01T06:23:32.672Z,75.19
2022-11-01T06:25:58.978Z,75.07
2022-11-01T06:28:25.283Z,74.93
2022-11-01T06:30:51.669Z,74.78
2022-11-01T06:33:17.988Z,75.04
2022-11-01T06:35:44.250Z,75.27
2022-11-01T06:38:10.623Z,74.80
2022-11-01T06:40:36.939Z,75.16
2022-11-01T06:43:03.700Z,75.26
2022-11-01T06:45:30.550Z,74.79
2022-11-01T06:47:56.820Z,74.86
2022-11-01T06:50:23.147Z,75.00
2022-11-01T06:52:49.576Z,75.23
2022-11-01T06:55:15.944Z,75.24
2022-11-01T06:57:42.162Z,75.23
2022-11-01T07:00:08.443Z,75.03
2022-11-01T07:02:34.845Z,74.77
2022-11-01T07:05:01.340Z,74.99
2022-11-01T07:07:27.739Z,75.16
2022-11-01T07:09:54.074Z,75.39
2022-11-01T07:12:20.422Z,75.39
2022-11-01T07:14:46.690Z,75.46
2022-11-01T07:17:12.982Z,75.17
2022-11-01T07:19:39.599Z,75.37
2022-11-01T07:22:05.838Z,75.43
2022-11-01T07:24:32.220Z,75.30
2022-11-01T07:26:58.516Z,75.48
2022-11-01T07:29:24.909Z,75.15
2022-11-01T07:31:51.190Z,75.13
2022-11-01T07:34:17.472Z,75.18
2022-11-01T07:36:43.814Z,75.25
2022-11-01T07:39:10.156Z,75.31
2022-11-01T07:41:36.453Z,74.81
2022-11-01T07:44:02.876Z,75.22
2022-11-01T07:46:29.150Z,75.08
2022-11-01T07:48:55.513Z,75.06
2022-11-01T07:51:22.134Z,75.09
2022-11-01T07:53:48.543Z,75.23
2022-11-01T07:56:15.238Z,74.99
2022-11-01T07:58:42.312Z,75.03
2022-11-01T08:01:08.782Z,74.87
2022-11-01T08:03:35.242Z,75.15
2022-11-01T08:06:01.537Z,75.36
2022-11-01T08:08:28.064Z,75.16
2022-11-01T08:10:54.471Z,74.91
2022-11-01T08:13:20.859Z,75.17
2022-11-01T08:15:47.832Z,75.04
2022-11-01T08:18:14.116Z,75.27
2022-11-01T08:20:40.440Z,74.90
2022-11-01T08:23:07.100Z,75.14
2022-11-01T08:25:33.725Z,75.33
2022-11-01T08:28:00.189Z,75.11
2022-11-01T08:30:35.401Z,74.90
2022-11-01T08:33:02.204Z,75.32
2022-11-01T08:35:29.017Z,74.84
2022-11-01T08:37:55.359Z,75.00
2022-11-01T08:40:21.765Z,75.09
2022-11-01T08:42:48.105Z,75.32
2022-11-01T08:45:14.425Z,75.11
2022-11-01T08:47:40.777Z,75.46
2022-11-01T08:50:08.692Z,75.55
2022-11-01T08:52:37.374Z,75.22
2022-11-01T08:55:04.139Z,75.57
2022-11-01T08:57:30.440Z,75.17
2022-11-01T08:59:56.975Z,75.43
2022-11-01T09:02:23.366Z,75.21
2022-11-01T09:04:50.007Z,75.35
2022-11-01T09:07:16.460Z,75.52
2022-11-01T09:09:43.025Z,75.06
2022-11-01T09:12:13.871Z,75.36
2022-11-01T09:14:40.919Z,75.37
2022-11-01T09:17:07.188Z,75.12
2022-11-01T09:19:33.763Z,75.18
2022-11-01T09:22:00.141Z,75.19
2022-11-01T09:24:26.577Z,75.36
2022-11-01T09:26:52.888Z,74.90
2022-11-01T09:29:19.212Z,75.04
2022-11-01T09:31:45.818Z,74.98
2022-11-01T09:34:12.218Z,75.34
2022-11-01T09:36:38.599Z,75.09
2022-11-01T09:39:04.920Z,75.10
2022-11-01T09:41:31.235Z,75.07
2022-11-01T09:43:57.596Z,75.20
2022-11-01T09:46:23.902Z,75.11
2022-11-01T09:48:50.248Z,75.04
2022-11-01T09:51:16.481Z,75.18
2022-11-01T09:53:42.880Z,74.83
2022-11-01T09:56:09.296Z,75.16
2022-11-01T09:58:35.607Z,74.99
2022-11-01T10:01:01.995Z,74.97
2022-11-01T10:03:28.309Z,74.97
2022-11-01T10:05:54.710Z,75.37
2022-11-01T10:08:21.130Z,75.02
2022-11-01T10:10:47.562Z,74.86
2022-11-01T10:13:13.925Z,74.88
2022-11-01T10:15:40.540Z,75.11
2022-11-01T10:18:08.076Z,74.99
2022-11-01T10:20:34.824Z,74.99
2022-11-01T10:23:01.504Z,75.21
2022-11-01T10:25:28.216Z,74.88
2022-11-01T10:27:54.612Z,74.98
2022-11-01T10:30:20.956Z,75.09
2022-11-01T10:32:47.260Z,75.32
2022-11-01T10:35:13.685Z,75.04
2022-11-01T10:37:47.254Z,74.99
2022-11-01T10:40:23.966Z,75.30
2022-11-01T10:42:50.270Z,75.02
2022-11-01T10:45:16.769Z,75.20
2022-11-01T10:47:43.234Z,75.31
2022-11-01T10:50:09.732Z,74.80
2022-11-01T10:52:36.120Z,74.96
2022-11-01T10:55:02.676Z,75.04
2022-11-01T10:57:28.938Z,75.04
2022-11-01T10:59:55.491Z,75.40
2022-11-01T11:02:21.907Z,75.18
2022-11-01T11:04:48.384Z,75.15
2022-11-01T11:07:18.548Z,74.99
2022-11-01T11:09:48.036Z,75.02
2022-11-01T11:12:14.448Z,75.29
2022-11-01T11:14:40.793Z,75.32
2022-11-01T11:17:07.150Z,75.32
2022-11-01T11:19:33.483Z,74.99
2022-11-01T11:21:59.787Z,75.15
2022-11-01T11:24:26.192Z,75.32
2022-11-01T11:26:54.335Z,75.32
2022-11-01T11:29:21.308Z,75.05
2022-11-01T11:31:47.586Z,75.16
2022-11-01T11:34:13.954Z,75.46
2022-11-01T11:36:41.986Z,75.36
2022-11-01T11:39:08.530Z,75.26
2022-11-01T11:41:35.240Z,75.31
2022-11-01T11:44:01.669Z,75.21
2022-11-01T11:46:28.161Z,75.44
2022-11-01T11:48:54.509Z,75.39
2022-11-01T11:51:20.825Z,75.58
2022-11-01T11:53:47.198Z,75.18
2022-11-01T11:56:13.560Z,75.33
2022-11-01T11:58:39.827Z,75.44
2022-11-01T12:01:06.308Z,75.57
2022-11-01T12:03:32.788Z,75.32
2022-11-01T12:05:59.144Z,75.41
2022-11-01T12:08:25.946Z,75.50
2022-11-01T12:10:52.499Z,75.41
2022-11-01T12:13:18.744Z,75.17
2022-11-01T12:15:45.237Z,75.45
2022-11-01T12:18:14.695Z,75.04
2022-11-01T12:20:42.335Z,75.22
2022-11-01T12:23:08.708Z,75.48
2022-11-01T12:25:35.290Z,75.18
2022-11-01T12:28:02.269Z,75.21
2022-11-01T12:30:28.980Z,75.54
2022-11-01T12:32:55.422Z,75.52
2022-11-01T12:35:21.850Z,75.42
2022-11-01T12:37:48.232Z,75.41
2022-11-01T12:40:14.779Z,75.25
2022-11-01T12:42:41.262Z,75.30
2022-11-01T12:45:07.584Z,75.34
2022-11-01T12:47:33.933Z,75.56
2022-11-01T12:50:00.192Z,75.70
2022-11-01T12:52:27.306Z,75.59
2022-11-01T12:54:53.787Z,75.83
2022-11-01T12:57:20.063Z,75.48
2022-11-01T12:59:46.874Z,75.40
2022-11-01T13:02:13.230Z,75.25
2022-11-01T13:04:39.780Z,75.21
2022-11-01T13:07:06.408Z,75.56
2022-11-01T13:09:32.859Z,75.31
2022-11-01T13:11:59.376Z,75.52
2022-11-01T13:14:26.524Z,75.51
2022-11-01T13:16:52.860Z,75.57
2022-11-01T13:19:19.178Z,75.40
2022-11-01T13:21:45.620Z,75.26
2022-11-01T13:24:12.037Z,75.38
2022-11-01T13:26:38.361Z,75.51
2022-11-01T13:29:04.816Z,75.37
2022-11-01T13:31:31.342Z,75.30
2022-11-01T13:33:57.846Z,75.08
2022-11-01T13:36:28.690Z,75.71
2022-11-01T13:38:57.667Z,75.62
2022-11-01T13:41:23.952Z,75.70
2022-11-01T13:43:50.390Z,75.40
2022-11-01T13:46:16.914Z,75.28
2022-11-01T13:48:43.194Z,75.87
2022-11-01T13:51:09.640Z,75.44
2022-11-01T13:53:36.019Z,75.83
2022-11-01T13:56:02.357Z,75.78
2022-11-01T13:58:28.650Z,75.69
2022-11-01T14:00:54.937Z,75.67
2022-11-01T14:03:21.288Z,76.03
2022-11-01T14:05:47.584Z,76.09
2022-11-01T14:08:13.894Z,75.45
2022-11-01T14:10:40.454Z,75.71
2022-11-01T14:13:06.747Z,75.42
2022-11-01T14:15:33.051Z,75.42
2022-11-01T14:17:59.574Z,75.33
2022-11-01T14:20:25.989Z,75.66
2022-11-01T14:22:52.569Z,75.38
2022-11-01T14:27:51.840Z,75.67
2022-11-01T14:30:18.419Z,75.46
2022-11-01T14:32:44.750Z,75.40
2022-11-01T14:35:11.151Z,75.75
2022-11-01T14:37:37.583Z,75.83
2022-11-01T14:40:04.103Z,75.44
2022-11-01T14:42:31.908Z,75.65
2022-11-01T14:44:58.610Z,75.75
2022-11-01T14:47:24.959Z,75.32
2022-11-01T14:49:51.627Z,75.29
2022-11-01T14:52:18.031Z,75.71
2022-11-01T14:54:44.576Z,75.50
2022-11-01T14:57:10.900Z,75.66
2022-11-01T14:59:37.165Z,75.85
2022-11-01T15:02:03.798Z,75.50
2022-11-01T15:04:30.320Z,75.60
2022-11-01T15:06:56.712Z,75.49
2022-11-01T15:09:23.034Z,75.45
2022-11-01T15:11:49.356Z,75.65
2022-11-01T15:14:15.694Z,75.65
2022-11-01T15:16:42.099Z,75.53
2022-11-01T15:19:08.347Z,75.28
2022-11-01T15:21:34.702Z,75.72
2022-11-01T15:24:01.144Z,75.84
2022-11-01T15:26:27.607Z,75.65
2022-11-01T15:28:53.944Z,75.73
2022-11-01T15:31:20.299Z,75.41
2022-11-01T15:33:46.588Z,75.42
2022-11-01T15:36:13.571Z,75.62
2022-11-01T15:38:40.026Z,75.51
2022-11-01T15:41:06.328Z,75.57
2022-11-01T15:43:32.724Z,75.44
2022-11-01T15:45:59.052Z,75.56
2022-11-01T15:48:25.399Z,75.50
2022-11-01T15:50:51.703Z,75.54
2022-11-01T15:53:18.039Z,75.27
2022-11-01T15:55:44.351Z,75.40
2022-11-01T15:58:10.708Z,75.33
2022-11-01T16:00:37.032Z,75.42
2022-11-01T16:03:03.719Z,75.69
2022-11-01T16:05:30.345Z,75.44
2022-11-01T16:07:56.865Z,75.86
2022-11-01T16:10:23.217Z,75.33
2022-11-01T16:12:49.568Z,75.50
2022-11-01T16:15:15.916Z,75.42
2022-11-01T16:17:42.337Z,75.34
2022-11-01T16:20:08.759Z,75.26
2022-11-01T16:22:35.029Z,75.50
2022-11-01T16:25:01.732Z,75.65
2022-11-01T16:27:28.726Z,75.53
2022-11-01T16:29:54.969Z,75.65
2022-11-01T16:32:21.332Z,75.61
2022-11-01T16:34:47.661Z,75.29
2022-11-01T16:37:14.003Z,75.66
2022-11-01T16:39:41.185Z,75.39
2022-11-01T16:42:07.503Z,75.64
2022-11-01T16:44:33.853Z,75.33
2022-11-01T16:47:00.164Z,75.44
2022-11-01T16:49:26.583Z,75.28
2022-11-01T16:51:52.994Z,75.62
2022-11-01T16:54:19.509Z,75.55
2022-11-01T16:56:45.966Z,75.57
2022-11-01T16:59:12.938Z,75.88
2022-11-01T17:04:13.222Z,76.15
2022-11-01T17:06:39.658Z,76.41
2022-11-01T17:11:46.472Z,76.30
2022-11-01T17:14:18.543Z,76.41
2022-11-01T17:16:45.032Z,76.10
2022-11-01T17:19:11.412Z,76.32
2022-11-01T17:21:37.747Z,76.53
2022-11-01T17:24:04.159Z,76.56
2022-11-01T17:26:30.634Z,76.68
2022-11-01T17:28:57.088Z,76.47
2022-11-01T17:31:23.380Z,76.77
2022-11-01T17:33:49.740Z,76.68
2022-11-01T17:36:16.046Z,77.11
2022-11-01T17:38:42.456Z,77.32
2022-11-01T17:41:09.167Z,77.38
2022-11-01T17:43:36.245Z,76.65
2022-11-01T17:46:02.761Z,76.82
2022-11-01T17:48:29.302Z,77.02
2022-11-01T17:50:55.733Z,76.98
2022-11-01T17:53:22.085Z,76.61
2022-11-01T17:55:48.384Z,76.61
2022-11-01T17:58:14.763Z,76.52
2022-11-01T18:00:41.030Z,76.27
2022-11-01T18:03:07.604Z,76.20
2022-11-01T18:05:34.452Z,76.17
2022-11-01T18:08:00.921Z,76.00
2022-11-01T18:10:27.420Z,76.05
2022-11-01T18:12:53.743Z,76.04
2022-11-01T18:15:20.055Z,76.33
2022-11-01T18:17:48.876Z,76.04
2022-11-01T18:20:15.823Z,76.12
2022-11-01T18:22:42.196Z,76.24
2022-11-01T18:25:08.520Z,76.25
2022-11-01T18:27:34.830Z,76.79
2022-11-01T18:30:01.409Z,76.59
2022-11-01T18:32:27.786Z,76.24
2022-11-01T18:34:54.170Z,76.25
2022-11-01T18:37:20.522Z,76.29
2022-11-01T18:39:47.003Z,76.59
2022-11-01T18:42:13.349Z,76.34
2022-11-01T18:44:39.768Z,76.53
2022-11-01T18:47:06.156Z,76.93
2022-11-01T18:49:32.546Z,76.85
2022-11-01T18:52:00.380Z,76.29
2022-11-01T18:54:26.780Z,77.02
2022-11-01T18:56:54.430Z,76.60
2022-11-01T18:59:20.773Z,76.71
2022-11-01T19:01:47.282Z,76.42
2022-11-01T19:04:13.659Z,77.00
2022-11-01T19:06:39.980Z,76.26
2022-11-01T19:09:06.343Z,76.47
2022-11-01T19:11:32.701Z,76.15
2022-11-01T19:13:59.026Z,76.15
2022-11-01T19:16:25.507Z,76.29
2022-11-01T19:18:52.164Z,76.28
2022-11-01T19:21:18.474Z,75.92
2022-11-01T19:23:44.979Z,76.05
2022-11-01T19:26:11.258Z,76.02
2022-11-01T19:28:38.543Z,75.92
2022-11-01T19:31:05.091Z,75.88
2022-11-01T19:33:31.398Z,75.84
2022-11-01T19:35:57.722Z,75.95
2022-11-01T19:38:24.420Z,75.90
2022-11-01T19:40:50.691Z,75.52
2022-11-01T19:43:17.127Z,75.51
2022-11-01T19:45:43.636Z,75.99
2022-11-01T19:48:09.994Z,75.90
2022-11-01T19:50:36.274Z,75.87
2022-11-01T19:53:02.691Z,75.61
2022-11-01T19:55:29.117Z,75.85
2022-11-01T19:57:55.485Z,75.92
2022-11-01T20:00:21.868Z,75.44
2022-11-01T20:02:48.523Z,75.90
2022-11-01T20:05:14.912Z,75.91
2022-11-01T20:07:41.347Z,75.64
2022-11-01T20:10:07.710Z,75.97
2022-11-01T20:12:34.111Z,75.95
2022-11-01T20:15:00.763Z,75.70
2022-11-01T20:17:27.309Z,75.83
2022-11-01T20:19:53.838Z,75.98
2022-11-01T20:22:21.126Z,75.66
2022-11-01T20:24:47.543Z,75.84
2022-11-01T20:27:14.033Z,75.58
2022-11-01T20:29:40.359Z,75.87
2022-11-01T20:32:06.764Z,76.03
2022-11-01T20:34:33.195Z,75.64
2022-11-01T20:37:26.782Z,75.96
2022-11-01T20:39:45.951Z,76.20
2022-11-01T20:42:12.446Z,76.21
2022-11-01T20:44:39.060Z,75.94
2022-11-01T20:47:05.387Z,75.79
2022-11-01T20:49:31.682Z,75.66
2022-11-01T20:52:13.535Z,75.54
2022-11-01T20:54:44.943Z,75.36
2022-11-01T20:57:24.807Z,75.54
2022-11-01T20:59:54.217Z,75.08
2022-11-01T21:02:20.575Z,75.42
2022-11-01T21:04:46.984Z,75.54
2022-11-01T21:07:13.287Z,75.58
2022-11-01T21:09:39.862Z,75.56
2022-11-01T21:12:06.331Z,75.59
2022-11-01T21:14:32.668Z,75.60
2022-11-01T21:16:59.006Z,75.64
2022-11-01T21:19:25.329Z,75.39
2022-11-01T21:21:51.923Z,75.76
2022-11-01T21:24:18.975Z,75.80
2022-11-01T21:26:45.299Z,75.40
2022-11-01T21:29:11.834Z,75.45
2022-11-01T21:31:38.526Z,75.83
2022-11-01T21:34:05.099Z,75.71
2022-11-01T21:36:31.425Z,75.51
2022-11-01T21:38:57.719Z,75.92
2022-11-01T21:41:24.252Z,75.64
2022-11-01T21:43:50.700Z,75.75
2022-11-01T21:46:17.067Z,75.74
2022-11-01T21:48:43.388Z,75.61
2022-11-01T21:51:09.922Z,75.46
2022-11-01T21:53:36.269Z,75.07
2022-11-01T21:56:02.761Z,75.07
2022-11-01T21:58:29.218Z,75.29
2022-11-01T22:00:55.805Z,75.43
2022-11-01T22:03:22.294Z,75.26
2022-11-01T22:05:48.656Z,75.52
2022-11-01T22:08:15.165Z,75.46
2022-11-01T22:10:41.797Z,75.54
2022-11-01T22:13:08.561Z,75.67
2022-11-01T22:15:35.119Z,75.19
2022-11-01T22:18:01.985Z,75.55
2022-11-01T22:20:28.323Z,75.34
2022-11-01T22:22:54.890Z,75.51
2022-11-01T22:25:21.186Z,75.55
2022-11-01T22:27:47.764Z,75.24
2022-11-01T22:30:14.138Z,75.10
2022-11-01T22:32:40.598Z,75.47
2022-11-01T22:35:06.878Z,75.69
2022-11-01T22:37:33.596Z,75.43
2022-11-01T22:39:59.914Z,75.21
2022-11-01T22:42:26.240Z,75.19
2022-11-01T22:44:52.792Z,75.24
2022-11-01T22:47:19.434Z,74.94
2022-11-01T22:49:45.917Z,75.22
2022-11-01T22:52:12.776Z,75.10
2022-11-01T22:54:39.274Z,74.82
2022-11-01T22:57:05.732Z,75.10
2022-11-01T22:59:33.352Z,75.10
2022-11-01T23:02:00.286Z,75.06
2022-11-01T23:04:27.252Z,74.59
2022-11-01T23:06:53.894Z,74.96
2022-11-01T23:09:20.292Z,74.73
2022-11-01T23:11:46.974Z,74.77
2022-11-01T23:14:14.427Z,74.44
2022-11-01T23:16:41.315Z,74.49
2022-11-01T23:19:07.926Z,74.70
2022-11-01T23:21:34.988Z,74.68
2022-11-01T23:24:01.421Z,74.85
2022-11-01T23:26:27.823Z,74.53
2022-11-01T23:28:54.176Z,74.57
2022-11-01T23:31:20.461Z,74.22
2022-11-01T23:33:46.810Z,74.60
2022-11-01T23:36:13.728Z,74.33
2022-11-01T23:38:40.051Z,74.56
2022-11-01T23:41:06.399Z,74.23
2022-11-01T23:43:32.720Z,74.15
2022-11-01T23:45:59.098Z,74.35
2022-11-01T23:48:25.641Z,74.44
2022-11-01T23:50:52.120Z,74.51
2022-11-01T23:53:20.472Z,74.41
2022-11-01T23:55:46.706Z,74.06
2022-11-01T23:58:13.064Z,74.16
